sim
Sign-in with your pilot id or email,
or register
Callsign
Passwort

Schedule Details

Flight Number: OEO5139
Departure: Tunis Carthage International Airport (DTTA) at 07:25
Arrival: Munich Airport (EDDM) at 09:40

Weather Information
Getting current METAR information for DTTA 260100Z 25011KT 220V290 8000 SCT030 SCT043 22/08 Q1010
Getting current METAR information for EDDM 260120Z 25012KT 9999 -RA BKN014 07/06 Q1000 NOSIG

Schedule Frequency

Route Map